(Private) Aero Club Test (FD38)
Wellington, FL
Field Elevation: 20
Lat: 26°38.79N  Long: 80°17.65W
CTAF/Unicom Freq: 122.8500
   
     For Weather-by-Phone, call (561) 793-2088
Weather Advisories
2017-01-24   17:14 Z
Altimeter 29.92" Hg
Wind 310° @ 13 KT
Gusts 17 KT
Temperature 21° C (70° F)
Dewpoint 12° C (54° F)
Relative Humidity 55%
Density Altitude --
Condensation Altitude 4,700 feet
Precip Gauge 0.0" / 0.0" (hour/day)
Wind and Runways
Indicated Runway = 34
Headwind = 11 kt
Crosswind = 6 kt
History
 
 
 
More Info
NOAA Forecast
 
 
About Us
Belfort Instrument
 
 
FAA Disclaimer: The data displayed is for advisory purposes only and is not to be used for flight planning or operations. For official data, please call (561) 793-2088 to hear the current automated AWOS voice message.
  METAR FD38 241714Z AUTO 31013G17KT 21/12 A2992